Latest Weather Observations for Burketown Airport

IDQ60801

Issued at 8:02 pm EST Sunday 14 February 2016 (issued every 30 minutes, with the page automatically refreshed every 10 minutes)

About weather observations | Map of weather stations | Latest weather observations for QLD | Other Formats
Station Details ID: 029077 Name: BURKETOWN AIRPORT Lat: -17.75 Lon: 139.54 Height: 5.7 m
Data from the previous 72 hours. | See also: Recent months at Burketown Airport
Date/Time
EST
Temp
°C
App
Temp
°C
Dew
Point
Rel
Hum
%
Delta-T
°C
Wind Press
QNH
hPa
Press
MSL
hPa
Rain
since 9 am
mm
Dir
 
Spd
km/h
Gust
km/h
Spd
kts
Gust
kts
14/08:00pm 31.2 34.5 25.1 70 4.3 N 17 24 9 13 1006.9 - 0.0
14/07:30pm 31.8 34.0 23.9 63 5.5 NNW 19 24 10 13 1006.3 - 0.0
14/07:00pm 32.7 34.2 23.1 57 6.6 NNW 20 30 11 16 1005.9 - 0.0
14/06:30pm 33.6 35.6 24.5 59 6.4 N 22 30 12 16 1005.5 - 0.0
14/06:00pm 34.4 35.3 23.4 52 7.7 N 24 30 13 16 1005.1 1005.0 0.0
14/05:30pm 35.0 35.7 23.0 49 8.3 N 24 32 13 17 1004.9 - 0.0
14/05:00pm 35.3 35.4 21.9 45 9.2 N 24 35 13 19 1004.7 - 0.0
14/04:30pm 35.8 36.3 22.7 46 9.1 N 24 33 13 18 1004.5 - 0.0
14/04:00pm 34.8 34.5 21.1 44 9.3 N 24 35 13 19 1004.5 - 0.0
14/03:30pm 37.1 37.2 21.2 39 10.8 NNE 22 32 12 17 1004.8 - 0.0
14/03:00pm 36.8 36.8 21.0 40 10.7 N 22 30 12 16 1005.1 1005.0 0.0
14/02:30pm 36.6 35.6 21.2 40 10.5 N 28 35 15 19 1005.2 - 0.0
14/02:00pm 37.6 39.4 19.5 34 12.1 N 9 19 5 10 1005.5 - 0.0
14/01:30pm 37.3 39.4 19.3 35 12.0 SSE 7 11 4 6 1005.8 - 0.0
14/01:00pm 36.5 39.8 21.9 42 10.0 W 7 13 4 7 1006.3 - 0.0
14/12:30pm 36.0 38.3 19.9 39 10.8 W 7 13 4 7 1006.7 - 0.0
14/12:00pm 35.2 38.9 23.2 49 8.4 WNW 9 13 5 7 1007.1 1007.0 0.0
14/11:30am 34.6 38.5 23.0 51 8.0 W 7 13 4 7 1007.6 - 0.0
14/11:00am 34.0 37.4 22.7 51 7.8 SW 9 13 5 7 1008.0 - 0.0
14/10:30am 33.6 38.5 23.6 56 7.0 SSW 4 9 2 5 1008.2 - 0.0
14/10:00am 33.3 38.1 24.5 60 6.2 SW 7 9 4 5 1008.4 - 0.0
14/09:30am 32.1 36.6 23.9 62 5.7 W 7 11 4 6 1008.3 - 0.0
14/09:00am 30.7 34.2 23.6 66 4.9 W 11 13 6 7 1008.1 1008.0 0.0
14/08:30am 29.6 34.7 25.6 79 2.8 WNW 9 11 5 6 1008.2 - 0.0
14/08:00am 28.0 33.3 25.8 88 1.6 N 9 13 5 7 1008.1 - 0.0
14/07:30am 26.7 32.5 25.8 95 0.6 N 6 6 3 3 1008.0 - 0.0
14/07:00am 25.7 32.1 25.5 99 0.1 WNW 2 6 1 3 1007.8 - 0.0
14/06:30am 25.5 30.9 25.5 100 0.0 W 7 9 4 5 1007.3 - 0.0
14/06:00am 25.4 30.4 25.4 100 0.0 NW 9 11 5 6 1006.7 1006.6 0.0
14/05:30am 25.3 30.0 25.0 98 0.2 WNW 9 9 5 5 1006.4 - 0.0
14/05:00am 25.8 31.3 25.3 97 0.3 N 6 7 3 4 1006.1 - 0.0
14/04:30am 25.9 30.9 25.4 97 0.3 NNW 9 11 5 6 1005.7 - 0.0
14/04:00am 26.0 31.3 25.3 96 0.5 NNW 7 9 4 5 1005.4 - 0.0
14/03:30am 26.2 30.7 25.2 94 0.7 WNW 11 13 6 7 1005.3 - 0.0
14/03:00am 26.6 31.1 25.2 92 1.0 WNW 11 13 6 7 1005.3 1005.2 0.0
14/02:30am 27.0 30.9 25.4 91 1.1 WNW 15 17 8 9 1005.3 - 0.0
14/02:00am 26.9 30.7 25.3 91 1.1 NW 15 19 8 10 1005.7 - 0.0
14/01:30am 27.0 30.7 25.2 90 1.3 WNW 15 19 8 10 1006.1 - 0.0
14/01:00am 26.8 30.8 25.0 90 1.3 NW 13 13 7 7 1006.6 - 0.0
14/12:30am 27.1 31.3 24.7 87 1.7 NW 11 15 6 8 1007.0 - 0.0
14/12:00am 27.9 31.7 24.7 83 2.2 NNW 13 19 7 10 1007.2 1007.1 0.0
 
Date/Time
EST
Temp
°C
App
Temp
°C
Dew
Point
Rel
Hum
%
Delta-T
°C
Wind Press
QNH
hPa
Press
MSL
hPa
Rain
since 9 am
mm
Dir
 
Spd
km/h
Gust
km/h
Spd
kts
Gust
kts
13/11:30pm 27.6 31.0 24.0 81 2.5 NNW 13 15 7 8 1007.2 - 0.0
13/11:00pm 27.7 31.4 24.5 83 2.2 NW 13 15 7 8 1007.4 - 0.0
13/10:30pm 28.6 32.8 25.4 83 2.3 NNW 13 15 7 8 1007.5 - 0.0
13/10:00pm 28.8 33.2 25.6 83 2.3 NNW 13 15 7 8 1007.4 - 0.0
13/09:30pm 28.7 33.3 25.3 82 2.4 NNW 11 13 6 7 1007.3 - 0.0
13/09:00pm 29.1 33.2 24.6 76 3.1 NNW 11 15 6 8 1007.1 1007.0 0.0
13/08:30pm 29.8 33.3 23.5 69 4.3 NNW 11 13 6 7 1006.8 - 0.0
13/08:00pm 30.7 33.7 23.4 65 5.0 N 13 15 7 8 1006.4 - 0.0
13/07:30pm 31.6 34.4 23.7 63 5.5 N 15 20 8 11 1006.0 - 0.0
13/07:00pm 32.4 33.5 21.9 54 7.1 N 19 24 10 13 1005.5 - 0.0
13/06:30pm 33.3 33.5 20.1 45 8.8 N 19 24 10 13 1005.1 - 0.0
13/06:00pm 34.1 34.3 20.5 45 9.1 N 20 28 11 15 1004.9 1004.8 0.0
13/05:30pm 35.0 35.0 20.9 43 9.5 N 22 30 12 16 1004.5 - 0.0
13/05:00pm 35.3 33.9 20.4 41 10.0 NNE 28 33 15 18 1004.3 - 0.0
13/04:30pm 35.0 34.4 20.5 42 9.7 NNE 24 33 13 18 1004.3 - 0.0
13/04:00pm 35.8 36.6 21.3 43 9.9 NE 19 24 10 13 1004.4 - 0.0
13/03:30pm 37.7 38.3 18.7 33 12.5 S 13 20 7 11 1004.7 - 0.0
13/03:00pm 38.0 36.3 15.7 26 14.2 ESE 19 32 10 17 1005.1 1005.0 0.0
13/02:30pm 37.4 40.6 22.3 41 10.4 NE 9 22 5 12 1005.3 - 0.0
13/02:00pm 36.9 39.2 19.8 36 11.4 W 7 13 4 7 1005.5 - 0.0
13/01:30pm 36.5 39.6 21.1 40 10.5 N 6 15 3 8 1005.9 - 0.0
13/01:00pm 36.3 39.7 21.7 42 10.0 W 6 11 3 6 1006.3 - 0.0
13/12:30pm 35.8 39.0 21.3 43 9.9 WSW 6 11 3 6 1006.7 - 0.0
13/12:00pm 35.0 38.2 21.6 45 9.1 SW 7 11 4 6 1007.3 1007.2 0.0
13/11:30am 34.6 40.0 25.1 57 6.7 ESE 6 9 3 5 1007.7 - 0.0
13/11:00am 33.3 37.8 23.9 58 6.6 WNW 7 15 4 8 1008.1 - 0.0
13/10:30am 33.3 38.0 25.6 64 5.5 SSW 11 15 6 8 1008.4 - 0.0
13/10:00am 32.5 37.1 25.3 66 5.1 WSW 11 15 6 8 1008.6 - 0.0
13/09:30am 31.5 36.1 25.4 70 4.3 SW 11 15 6 8 1008.4 - 0.0
13/09:00am 30.7 36.0 26.4 78 3.1 WSW 11 15 6 8 1008.1 1008.0 0.2
13/08:30am 29.1 34.3 26.3 85 2.0 W 11 15 6 8 1008.1 - 0.0
13/08:00am 27.8 33.7 26.7 94 0.8 W 9 15 5 8 1008.1 - 0.0
13/07:30am 26.7 32.4 26.5 99 0.1 SW 9 11 5 6 1008.0 - 0.0
13/07:00am 26.0 31.4 26.0 100 0.0 SSW 9 11 5 6 1007.7 - 0.0
13/06:30am 25.6 30.7 25.6 100 0.0 SW 9 11 5 6 1007.4 - 0.0
13/06:00am 25.6 30.7 25.6 100 0.0 WSW 9 9 5 5 1007.2 1007.1 0.0
13/05:30am 25.9 30.8 25.9 100 0.0 WSW 11 13 6 7 1007.0 - 0.0
13/05:00am 25.9 30.8 25.9 100 0.0 WSW 11 13 6 7 1006.8 - 0.0
13/04:30am 25.9 31.6 25.9 100 0.0 WSW 7 9 4 5 1006.5 - 0.0
13/04:00am 25.9 31.6 25.9 100 0.0 W 7 9 4 5 1006.2 - 0.0
13/03:30am 25.7 30.9 25.7 100 0.0 W 9 11 5 6 1006.1 - 0.0
13/03:00am 26.0 31.3 25.8 99 0.1 WNW 9 9 5 5 1006.0 1005.9 0.0
13/02:30am 26.3 31.8 26.1 99 0.1 WNW 9 9 5 5 1006.0 - 0.0
13/02:00am 26.5 31.6 26.2 98 0.2 WNW 11 11 6 6 1006.1 - 0.0
13/01:30am 26.7 31.7 26.5 99 0.1 WNW 13 15 7 8 1006.4 - 0.0
13/01:00am 26.4 31.6 25.7 96 0.5 WNW 9 11 5 6 1006.8 - 0.0
13/12:30am 26.6 31.3 25.6 94 0.7 WNW 11 13 6 7 1006.9 - 0.0
13/12:00am 27.1 32.0 25.9 93 0.8 N 11 13 6 7 1007.2 1007.1 0.0
 
Date/Time
EST
Temp
°C
App
Temp
°C
Dew
Point
Rel
Hum
%
Delta-T
°C
Wind Press
QNH
hPa
Press
MSL
hPa
Rain
since 9 am
mm
Dir
 
Spd
km/h
Gust
km/h
Spd
kts
Gust
kts
12/11:30pm 27.1 32.4 25.9 93 0.8 N 9 11 5 6 1007.4 - 0.0
12/11:00pm 27.4 32.8 26.0 92 1.0 NNW 9 11 5 6 1007.5 - 0.0
12/10:30pm 27.8 32.9 26.2 91 1.1 N 11 13 6 7 1007.5 - 0.0
12/10:00pm 28.1 33.7 26.3 90 1.3 N 9 9 5 5 1007.4 - 0.0
12/09:30pm 28.3 33.6 25.9 87 1.7 N 9 11 5 6 1007.2 - 0.0
12/09:00pm 28.5 33.3 25.7 85 2.0 N 11 13 6 7 1007.1 1007.0 0.0
12/08:30pm 29.0 33.7 25.6 82 2.4 N 11 13 6 7 1006.9 - 0.0
12/08:00pm 29.4 34.0 25.4 79 2.8 N 11 13 6 7 1006.7 - 0.0
12/07:30pm 30.1 34.2 25.2 75 3.5 NNE 13 17 7 9 1006.4 - 0.0
12/07:00pm 31.1 34.9 24.7 68 4.5 NNE 13 17 7 9 1006.0 - 0.0
12/06:30pm 32.2 35.5 24.5 64 5.4 NNE 15 19 8 10 1005.8 - 0.0
12/06:00pm 32.9 36.1 24.9 63 5.7 NNE 17 20 9 11 1005.5 1005.4 0.0
12/05:30pm 33.3 36.0 25.0 61 5.9 NNE 20 26 11 14 1005.5 - 0.0
12/05:00pm 33.6 35.9 24.5 59 6.4 NNE 20 28 11 15 1005.5 - 0.0
12/04:30pm 33.4 35.7 25.1 61 5.9 NNE 22 30 12 16 1005.4 - 0.0
12/04:00pm 34.7 37.5 25.2 57 6.8 NE 20 28 11 15 1005.6 - 0.0
12/03:30pm 34.3 36.6 25.1 58 6.5 NE 22 33 12 18 1005.5 - 0.0
12/03:00pm 35.3 36.7 23.6 50 8.2 N 22 32 12 17 1005.6 1005.5 0.0
12/02:30pm 36.2 39.0 20.8 40 10.4 SE 7 19 4 10 1006.1 - 0.0
12/02:00pm 34.7 39.4 23.4 52 7.9 SE 4 7 2 4 1006.5 - 0.0
12/01:30pm 34.5 39.8 25.0 57 6.7 N 6 13 3 7 1007.0 - 0.0
12/01:00pm 34.1 38.9 24.4 57 6.8 NW 7 11 4 6 1007.5 - 0.0
12/12:30pm 33.6 38.2 24.8 60 6.2 NW 9 15 5 8 1008.0 - 0.0
12/12:00pm 33.4 37.4 23.1 54 7.1 SE 7 13 4 7 1008.4 1008.3 0.0
12/11:30am 32.9 37.5 24.1 60 6.2 ESE 7 11 4 6 1008.8 - 0.0
12/11:00am 32.6 37.4 24.4 62 5.7 NE 7 13 4 7 1009.0 - 0.0
12/10:30am 31.8 36.6 24.4 65 5.2 N 7 9 4 5 1009.3 - 0.0
12/10:00am 31.3 36.9 25.4 71 4.2 SSE 6 7 3 4 1009.9 - 0.0
12/09:30am 30.1 36.4 25.4 76 3.3 S 2 7 1 4 1010.0 - 0.0
12/09:00am 29.3 35.0 25.9 82 2.4 S 7 11 4 6 1010.1 1010.0 0.0
12/08:30am 28.4 33.0 26.6 90 1.3 S 15 20 8 11 1010.0 - 0.0
12/08:00am 27.2 32.0 26.3 95 0.6 S 13 17 7 9 1009.9 - 0.0
12/07:30am 26.2 31.8 25.7 97 0.4 SSE 7 9 4 5 1009.1 - 0.0
12/07:00am 25.5 32.3 25.5 100 0.0 CALM 0 0 0 0 1008.2 - 0.0
12/06:30am 25.1 31.2 25.1 100 0.0 S 2 7 1 4 1007.8 - 0.0
12/06:00am 25.4 31.3 25.4 100 0.0 SSW 4 7 2 4 1007.3 1007.2 0.0
12/05:30am 25.4 30.8 25.4 100 0.0 SW 7 9 4 5 1006.9 - 0.0
12/05:00am 25.4 30.0 25.4 100 0.0 SW 11 11 6 6 1006.8 - 0.0
12/04:30am 25.4 30.0 25.4 100 0.0 WSW 11 13 6 7 1006.7 - 0.0
12/04:00am 25.3 30.2 25.3 100 0.0 W 9 11 5 6 1006.6 - 0.0
12/03:30am 25.4 30.0 25.4 100 0.0 W 11 13 6 7 1006.6 - 0.0
12/03:00am 25.6 30.7 25.6 100 0.0 W 9 11 5 6 1006.8 1006.7 0.0
12/02:30am 26.3 31.8 26.1 99 0.1 NNW 9 11 5 6 1006.8 - 0.0
12/02:00am 26.4 32.1 26.4 100 0.0 NW 9 9 5 5 1007.2 - 0.0
12/01:30am 26.5 32.6 26.5 100 0.0 WNW 7 7 4 4 1007.6 - 0.0
12/01:00am 26.4 32.5 26.2 99 0.1 WNW 6 7 3 4 1007.8 - 0.0
12/12:30am 27.0 33.5 26.8 99 0.1 NW 6 7 3 4 1007.8 - 0.0
12/12:00am 26.9 32.9 26.4 97 0.4 NW 7 9 4 5 1008.0 1007.9 0.0
 
Date/Time
EST
Temp
°C
App
Temp
°C
Dew
Point
Rel
Hum
%
Delta-T
°C
Wind Press
QNH
hPa
Press
MSL
hPa
Rain
since 9 am
mm
Dir
 
Spd
km/h
Gust
km/h
Spd
kts
Gust
kts
11/11:30pm 27.2 33.3 26.5 96 0.5 NNW 7 9 4 5 1008.1 - 0.0
11/11:00pm 27.3 33.5 26.6 96 0.5 NNW 7 9 4 5 1008.0 - 0.0
11/10:30pm 27.5 33.7 26.6 95 0.6 NW 7 7 4 4 1007.9 - 0.0
11/10:00pm 27.8 34.0 26.6 93 0.9 N 7 7 4 4 1007.6 - 0.0
11/09:30pm 27.8 33.7 26.2 91 1.1 N 7 9 4 5 1007.3 - 0.0
11/09:00pm 27.9 33.2 25.9 89 1.4 NNE 9 11 5 6 1007.2 1007.1 0.0
11/08:30pm 28.0 33.1 25.6 87 1.7 N 9 11 5 6 1006.8 - 0.0

Other Formats:

Comma delimited format used in spreadsheet applications
http://www.bom.gov.au/fwo/IDQ60801/IDQ60801.94260.axf

JavaScript Object Notation format (JSON) in row-major order
http://www.bom.gov.au/fwo/IDQ60801/IDQ60801.94260.json